Time;durP1;ratioP1;P1;durP2;ratioP2;P2;SDS_P1;SDS_P2;PMS_P1;PMS_P2;Temp;Humidity;BMP_temperature;BMP_pressure;BME280_temperature;BME280_humidity;BME280_pressure;Samples;Min_cycle;Max_cycle;Signal;HPM_P1;HPM_P2
2023/05/23 00:00:37;;;;;;;7.95;5.03;;;;;;;15.67;81.02;101664.94;5098622;27;20043;-70
2023/05/23 00:03:27;;;;;;;7.00;5.15;;;;;;;15.65;81.03;101657.03;5106365;28;20075;-75
2023/05/23 00:06:13;;;;;;;8.52;5.50;;;;;;;15.67;81.42;101654.31;5103402;28;20837;-76
2023/05/23 00:08:58;;;;;;;6.07;5.45;;;;;;;15.65;81.16;101662.34;5099421;28;20140;-71
2023/05/23 00:11:44;;;;;;;7.07;5.68;;;;;;;15.63;81.06;101656.22;5107439;28;20052;-70
2023/05/23 00:14:32;;;;;;;7.82;5.38;;;;;;;15.61;81.20;101667.84;5103658;28;20205;-70
2023/05/23 00:17:19;;;;;;;9.23;5.75;;;;;;;15.60;81.14;101656.31;5102422;28;20040;-70
2023/05/23 00:20:10;;;;;;;9.07;5.88;;;;;;;15.61;81.03;101662.53;5101375;28;20209;-70
2023/05/23 00:22:57;;;;;;;8.95;5.68;;;;;;;15.61;81.13;101663.38;5105525;28;20048;-71
2023/05/23 00:25:47;;;;;;;10.27;6.00;;;;;;;15.63;80.31;101660.66;5097242;28;20090;-71
2023/05/23 00:28:32;;;;;;;10.55;6.28;;;;;;;15.62;80.20;101662.47;5106038;28;20060;-71
2023/05/23 00:31:17;;;;;;;8.35;6.30;;;;;;;15.59;79.86;101661.72;5089516;28;20823;-71
2023/05/23 00:34:03;;;;;;;9.32;6.15;;;;;;;15.57;80.17;101658.25;5105622;28;20563;-71
2023/05/23 00:36:49;;;;;;;11.10;6.10;;;;;;;15.55;79.63;101668.06;5106836;28;20044;-70
2023/05/23 00:39:34;;;;;;;11.98;6.85;;;;;;;15.50;79.62;101669.13;5089393;28;20103;-71
2023/05/23 00:42:19;;;;;;;10.02;6.65;;;;;;;15.49;79.90;101663.84;5105188;28;20067;-70
2023/05/23 00:45:06;;;;;;;9.88;6.30;;;;;;;15.48;79.65;101670.06;5086125;28;20056;-70
2023/05/23 00:47:53;;;;;;;9.50;6.22;;;;;;;15.45;79.96;101670.22;5094401;28;20056;-70
2023/05/23 00:50:40;;;;;;;13.32;6.78;;;;;;;15.43;79.95;101664.94;5097566;28;20056;-70
2023/05/23 00:53:26;;;;;;;12.02;6.07;;;;;;;15.43;80.19;101670.25;5090166;28;20150;-71
2023/05/23 00:56:12;;;;;;;11.52;6.30;;;;;;;15.42;80.20;101670.31;5105103;28;20052;-71
2023/05/23 00:58:59;;;;;;;12.00;6.13;;;;;;;15.40;80.44;101681.00;5109240;28;20051;-70
2023/05/23 01:01:45;;;;;;;8.85;6.15;;;;;;;15.34;80.78;101671.47;5109256;28;20114;-71
2023/05/23 01:04:32;;;;;;;11.48;6.15;;;;;;;15.33;80.89;101682.16;5095783;28;20063;-71
2023/05/23 01:07:21;;;;;;;9.95;6.50;;;;;;;15.32;80.80;101683.94;5110002;28;20064;-72
2023/05/23 01:10:09;;;;;;;9.68;6.15;;;;;;;15.28;81.36;101684.13;5105683;28;20162;-72
2023/05/23 01:13:00;;;;;;;13.63;6.57;;;;;;;15.26;81.22;101673.53;5108540;28;20048;-71
2023/05/23 01:15:57;;;;;;;10.02;6.20;;;;;;;15.22;81.98;101683.41;5107940;28;20052;-71
2023/05/23 01:19:16;;;;;;;12.60;6.43;;;;;;;15.17;82.50;101681.84;5107365;28;20056;-71
2023/05/23 01:22:21;;;;;;;13.88;6.82;;;;;;;15.12;83.00;101687.31;5093808;28;20052;-70
2023/05/23 01:25:26;;;;;;;10.75;6.53;;;;;;;15.06;83.43;101685.75;5108908;28;20048;-69
2023/05/23 01:28:19;;;;;;;10.18;6.68;;;;;;;15.03;83.81;101701.81;5102984;28;20048;-70
2023/05/23 01:31:09;;;;;;;11.60;6.85;;;;;;;14.96;84.03;101692.31;5096144;28;20048;-70
2023/05/23 01:33:55;;;;;;;13.25;6.78;;;;;;;14.95;85.15;101703.00;5105047;28;20052;-71
2023/05/23 01:36:43;;;;;;;12.45;6.57;;;;;;;14.91;85.06;101694.28;5109132;28;20535;-71
2023/05/23 01:39:28;;;;;;;12.85;7.03;;;;;;;14.85;85.38;101698.00;5089426;28;20057;-72
2023/05/23 01:42:14;;;;;;;11.43;6.55;;;;;;;14.81;85.37;101708.78;5102645;28;20055;-72
2023/05/23 01:45:00;;;;;;;13.93;6.38;;;;;;;14.80;85.48;101717.66;5108261;28;20059;-72
2023/05/23 01:47:49;;;;;;;10.23;6.15;;;;;;;14.77;86.08;101713.31;5096395;27;20051;-71
2023/05/23 01:50:35;;;;;;;13.25;6.63;;;;;;;14.72;86.25;101716.16;5105206;28;20060;-71
2023/05/23 01:53:23;;;;;;;11.57;6.60;;;;;;;14.69;86.32;101710.94;5094195;28;20048;-72
2023/05/23 01:56:09;;;;;;;12.30;6.55;;;;;;;14.69;86.44;101715.38;5100568;28;20146;-72
2023/05/23 01:58:55;;;;;;;10.70;6.07;;;;;;;14.66;86.63;101710.13;5096234;28;20572;-72
2023/05/23 02:01:41;;;;;;;11.35;6.30;;;;;;;14.66;86.85;101712.78;5091267;28;20056;-72
2023/05/23 02:04:27;;;;;;;11.38;6.32;;;;;;;14.60;86.99;101729.78;5092870;28;20048;-72
2023/05/23 02:07:13;;;;;;;10.05;5.97;;;;;;;14.56;87.16;101722.81;5100101;28;20040;-73
2023/05/23 02:09:58;;;;;;;9.40;5.70;;;;;;;14.52;87.06;101729.16;5107674;28;20143;-72
2023/05/23 02:12:43;;;;;;;10.07;5.18;;;;;;;14.46;87.06;101727.59;5099990;28;20053;-71
2023/05/23 02:15:29;;;;;;;13.05;6.22;;;;;;;14.38;87.11;101721.66;5102249;28;20568;-72
2023/05/23 02:18:16;;;;;;;10.35;5.72;;;;;;;14.34;87.83;101738.59;5087668;28;20052;-71
2023/05/23 02:21:04;;;;;;;10.25;5.80;;;;;;;14.28;88.18;101726.38;5099530;28;20056;-71
2023/05/23 02:23:49;;;;;;;9.27;5.72;;;;;;;14.24;88.48;101722.97;5109153;28;20162;-71
2023/05/23 02:26:35;;;;;;;9.50;5.60;;;;;;;14.24;88.36;101724.75;5106254;28;20614;-71
2023/05/23 02:29:21;;;;;;;8.13;5.38;;;;;;;14.21;88.46;101720.41;5105743;28;20052;-70
2023/05/23 02:32:06;;;;;;;9.93;5.30;;;;;;;14.20;88.46;101731.06;5073557;28;20889;-70
2023/05/23 02:34:52;;;;;;;10.43;5.78;;;;;;;14.19;88.68;101743.47;5091203;28;20516;-70
2023/05/23 02:37:40;;;;;;;14.90;5.97;;;;;;;14.19;88.19;101743.47;5097135;28;20052;-70
2023/05/23 02:40:25;;;;;;;9.80;5.65;;;;;;;14.20;88.49;101737.22;5108559;28;20106;-70
2023/05/23 02:43:12;;;;;;;11.70;6.07;;;;;;;14.19;88.85;101743.47;5106242;28;20187;-70
2023/05/23 02:45:57;;;;;;;12.02;5.80;;;;;;;14.20;88.50;101736.38;5091639;28;20890;-72
2023/05/23 02:48:44;;;;;;;9.02;6.20;;;;;;;14.20;88.65;101731.91;5086658;28;20507;-71
2023/05/23 02:51:30;;;;;;;10.35;5.82;;;;;;;14.23;89.26;101733.63;5089745;28;20139;-70
2023/05/23 02:54:16;;;;;;;9.25;6.07;;;;;;;14.25;88.78;101734.44;5096658;28;20485;-70
2023/05/23 02:57:01;;;;;;;12.10;6.53;;;;;;;14.26;88.92;101731.75;5076674;28;20057;-69
2023/05/23 02:59:50;;;;;;;10.57;6.10;;;;;;;14.25;88.95;101734.44;5091919;28;20053;-70
2023/05/23 03:02:36;;;;;;;9.98;6.63;;;;;;;14.27;88.93;101740.56;5089062;28;20052;-70
2023/05/23 03:05:21;;;;;;;10.63;6.80;;;;;;;14.28;88.73;101732.56;5086601;28;20052;-70
2023/05/23 03:08:07;;;;;;;10.10;6.65;;;;;;;14.24;88.84;101752.13;5075628;28;20241;-70
2023/05/23 03:10:53;;;;;;;14.68;6.55;;;;;;;14.23;89.25;101739.78;5097607;28;20068;-70
2023/05/23 03:13:38;;;;;;;11.23;6.75;;;;;;;14.20;89.24;101739.03;5108065;28;20519;-70
2023/05/23 03:16:23;;;;;;;12.40;6.88;;;;;;;14.18;89.31;101740.84;5102321;28;20102;-71
2023/05/23 03:19:09;;;;;;;11.02;7.03;;;;;;;14.13;89.75;101741.88;5077086;28;20052;-71
2023/05/23 03:21:54;;;;;;;10.48;6.45;;;;;;;14.19;89.48;101762.03;5080941;28;20456;-72
2023/05/23 03:24:39;;;;;;;11.30;6.70;;;;;;;14.18;89.91;101747.03;5095329;28;20060;-72
2023/05/23 03:27:24;;;;;;;11.60;6.97;;;;;;;14.18;89.86;101740.84;5086428;28;20052;-71
2023/05/23 03:30:10;;;;;;;13.85;8.13;;;;;;;14.18;90.09;101749.69;5090422;28;20190;-71
2023/05/23 03:32:56;;;;;;;11.43;6.78;;;;;;;14.16;90.16;101756.81;5080166;28;20901;-71
2023/05/23 03:35:41;;;;;;;11.90;7.20;;;;;;;14.19;89.96;101761.16;5104289;28;20098;-71
2023/05/23 03:38:27;;;;;;;12.18;6.80;;;;;;;14.18;90.19;101755.00;5106234;28;20044;-70
2023/05/23 03:41:13;;;;;;;12.20;7.20;;;;;;;14.20;90.57;101761.09;5072589;28;20103;-70
2023/05/23 03:43:59;;;;;;;13.55;7.20;;;;;;;14.19;90.36;101764.69;5083357;28;20090;-70
2023/05/23 03:46:44;;;;;;;13.93;7.60;;;;;;;14.16;90.56;101762.13;5080764;28;20052;-70
2023/05/23 03:49:30;;;;;;;12.52;7.15;;;;;;;14.10;90.75;101763.19;5100351;28;20040;-70
2023/05/23 03:52:15;;;;;;;11.60;7.28;;;;;;;14.08;91.40;101765.00;5091032;28;20052;-70
2023/05/23 03:55:02;;;;;;;16.92;8.43;;;;;;;14.08;91.27;101766.78;5106684;28;20048;-69
2023/05/23 03:57:48;;;;;;;15.63;7.03;;;;;;;14.06;91.55;101771.28;5107501;28;20055;-70
2023/05/23 04:00:34;;;;;;;18.02;7.88;;;;;;;14.03;91.99;101779.31;5080619;28;20134;-71
2023/05/23 04:03:24;;;;;;;18.08;7.47;;;;;;;14.04;91.43;101778.41;5087730;28;20064;-70
2023/05/23 04:06:10;;;;;;;15.98;7.55;;;;;;;14.04;91.53;101770.44;5092648;28;20048;-70
2023/05/23 04:09:01;;;;;;;12.68;6.85;;;;;;;14.09;91.19;101777.34;5105296;28;20056;-70
2023/05/23 04:11:48;;;;;;;13.25;6.32;;;;;;;14.11;90.63;101779.94;5090206;28;20244;-70
2023/05/23 04:14:36;;;;;;;14.65;6.57;;;;;;;14.10;90.31;101784.38;5080181;28;20451;-70
2023/05/23 04:17:21;;;;;;;14.13;5.97;;;;;;;14.13;90.02;101778.13;5089622;28;20091;-71
2023/05/23 04:20:08;;;;;;;10.80;6.20;;;;;;;14.14;90.09;101782.50;5102591;28;20060;-71
2023/05/23 04:22:54;;;;;;;11.70;5.97;;;;;;;14.16;89.78;101783.34;5086849;28;20139;-70
2023/05/23 04:25:42;;;;;;;10.77;5.75;;;;;;;14.18;89.35;101780.63;5093062;28;20130;-70
2023/05/23 04:28:38;;;;;;;20.25;6.03;;;;;;;14.17;89.15;101782.41;5102062;28;20044;-70
2023/05/23 04:31:25;;;;;;;11.73;6.05;;;;;;;14.21;88.73;101791.16;5090395;28;20109;-72
2023/05/23 04:34:10;;;;;;;15.10;5.88;;;;;;;14.24;88.55;101793.72;5082257;28;20060;-70
2023/05/23 04:36:57;;;;;;;12.70;5.38;;;;;;;14.27;88.10;101801.56;5087789;28;20048;-71
2023/05/23 04:39:43;;;;;;;9.20;5.50;;;;;;;14.31;87.58;101802.31;5086694;28;20173;-71
2023/05/23 04:42:52;;;;;;;16.38;6.50;;;;;;;14.34;87.79;101805.78;5085913;28;20059;-71
2023/05/23 04:46:01;;;;;;;15.73;6.15;;;;;;;14.39;87.21;101806.50;5101344;28;20131;-71
2023/05/23 04:49:00;;;;;;;20.98;6.25;;;;;;;14.41;87.17;101802.00;5091259;28;20056;-71
2023/05/23 04:51:45;;;;;;;13.95;5.63;;;;;;;14.48;87.01;101812.41;5082944;28;20083;-71
2023/05/23 04:54:36;;;;;;;17.52;6.10;;;;;;;14.50;87.05;101811.44;5088094;28;20052;-71
2023/05/23 04:57:23;;;;;;;10.55;5.68;;;;;;;14.56;86.42;101813.03;5091105;27;20131;-71
2023/05/23 05:00:09;;;;;;;12.35;6.25;;;;;;;14.56;86.61;101819.22;5106038;28;20056;-70
2023/05/23 05:02:55;;;;;;;12.93;6.45;;;;;;;14.56;86.86;101821.88;5083019;28;20053;-70
2023/05/23 05:05:45;;;;;;;9.93;6.10;;;;;;;14.60;nan;101820.84;5088259;28;20063;-70
2023/05/23 05:08:32;;;;;;;13.98;6.38;;;;;;;14.62;86.02;101825.25;5089808;28;20490;-70
2023/05/23 05:11:17;;;;;;;12.07;6.82;;;;;;;14.64;85.99;101818.13;5102129;28;20103;-70
2023/05/23 05:14:02;;;;;;;14.43;6.53;;;;;;;14.65;86.09;101822.50;5099365;28;20048;-70
2023/05/23 05:16:48;;;;;;;14.25;6.30;;;;;;;14.64;86.21;101831.38;5101195;27;20052;-70
2023/05/23 05:19:35;;;;;;;18.00;7.05;;;;;;;14.62;85.23;101830.56;5085319;28;20143;-70
2023/05/23 05:22:20;;;;;;;18.77;7.10;;;;;;;14.55;85.49;101830.75;5089041;27;20544;-69
2023/05/23 05:25:07;;;;;;;17.67;7.57;;;;;;;14.51;85.51;101836.22;5088015;28;20091;-70
2023/05/23 05:27:53;;;;;;;18.65;6.90;;;;;;;14.47;85.43;101840.75;5087165;28;21072;-69
2023/05/23 05:30:39;;;;;;;16.25;7.82;;;;;;;14.38;85.69;101838.38;5100471;28;20052;-69
2023/05/23 05:33:27;;;;;;;17.83;8.40;;;;;;;14.29;85.74;101840.38;5103314;27;20048;-70
2023/05/23 05:36:22;;;;;;;23.52;8.55;;;;;;;14.25;86.05;101837.84;5088944;28;20047;-70
2023/05/23 05:39:08;;;;;;;24.02;8.90;;;;;;;14.24;86.56;101854.72;5088114;28;20056;-69
2023/05/23 05:41:55;;;;;;;22.50;8.73;;;;;;;14.19;85.93;101854.84;5108086;28;20516;-69
2023/05/23 05:44:41;;;;;;;27.85;8.65;;;;;;;14.19;86.15;101857.50;5089799;28;20056;-70
2023/05/23 05:47:26;;;;;;;21.60;8.98;;;;;;;14.18;86.11;101861.06;5092976;28;20052;-69
2023/05/23 05:50:12;;;;;;;28.08;9.55;;;;;;;14.18;86.43;101870.78;5092895;28;20789;-70
2023/05/23 05:52:58;;;;;;;18.70;8.27;;;;;;;14.20;86.50;101876.91;5108449;28;20487;-69
2023/05/23 05:55:43;;;;;;;22.55;7.80;;;;;;;14.20;86.29;101875.13;5092496;28;20059;-70
2023/05/23 05:58:28;;;;;;;18.40;7.30;;;;;;;14.19;86.29;101872.53;5092745;28;20056;-70
2023/05/23 06:01:19;;;;;;;20.27;7.57;;;;;;;14.14;86.56;101872.66;5107288;28;20055;-69
2023/05/23 06:04:05;;;;;;;21.73;7.22;;;;;;;14.09;86.45;101882.53;5103016;28;20052;-70
2023/05/23 06:06:51;;;;;;;21.42;6.78;;;;;;;14.03;87.20;101894.19;5090341;28;20063;-70
2023/05/23 06:09:36;;;;;;;14.30;5.88;;;;;;;14.02;86.76;101888.91;5094572;28;20956;-70
2023/05/23 06:12:22;;;;;;;18.67;6.20;;;;;;;14.02;86.70;101895.09;5089725;28;20048;-70
2023/05/23 06:15:08;;;;;;;15.98;5.78;;;;;;;14.00;86.80;101890.72;5108306;27;20056;-70
2023/05/23 06:17:55;;;;;;;16.85;5.53;;;;;;;13.97;86.76;101899.66;5107388;27;20110;-70
2023/05/23 06:20:42;;;;;;;14.68;5.70;;;;;;;13.95;87.09;101901.47;5093254;28;20059;-70
2023/05/23 06:23:32;;;;;;;11.55;5.43;;;;;;;13.88;87.14;101905.19;5093874;28;20055;-69
2023/05/23 06:26:17;;;;;;;15.90;5.80;;;;;;;13.81;87.61;101905.38;5109343;28;20107;-69
2023/05/23 06:29:03;;;;;;;15.68;5.95;;;;;;;13.72;88.07;101912.69;5088851;28;20056;-70
2023/05/23 06:31:48;;;;;;;15.25;5.88;;;;;;;13.65;88.37;101918.16;5074411;28;20056;-70
2023/05/23 06:34:33;;;;;;;10.73;5.80;;;;;;;13.58;88.33;101916.56;5101517;28;20048;-69
2023/05/23 06:37:19;;;;;;;18.20;5.43;;;;;;;13.58;89.06;101915.72;5107429;28;20048;-69
2023/05/23 06:40:05;;;;;;;17.70;5.68;;;;;;;13.52;87.88;101924.69;5092940;27;20049;-70
2023/05/23 06:42:50;;;;;;;13.07;4.93;;;;;;;13.46;87.94;101925.69;5091063;28;20116;-70
2023/05/23 06:45:46;;;;;;;13.38;5.32;;;;;;;13.45;88.07;101923.97;5091726;28;20052;-70
2023/05/23 06:48:32;;;;;;;11.20;5.40;;;;;;;13.53;87.93;101928.22;5093753;28;20080;-69
2023/05/23 06:51:17;;;;;;;15.38;5.18;;;;;;;13.58;87.43;101932.47;5090771;28;20048;-69
2023/05/23 06:54:03;;;;;;;15.82;4.88;;;;;;;13.64;86.76;101932.31;5104534;28;20056;-69
2023/05/23 06:56:48;;;;;;;13.05;4.75;;;;;;;13.68;86.11;101941.06;5104511;28;20056;-69
2023/05/23 06:59:33;;;;;;;27.65;5.22;;;;;;;13.72;85.55;101944.50;5091035;28;20063;-69
2023/05/23 07:02:20;;;;;;;15.85;4.60;;;;;;;13.75;84.39;101939.97;5087208;28;20558;-69
2023/05/23 07:05:05;;;;;;;10.27;3.67;;;;;;;13.77;83.41;101948.75;5099106;28;20905;-70
2023/05/23 07:08:06;;;;;;;11.15;4.00;;;;;;;13.78;82.53;101953.16;5104452;28;20055;-70
2023/05/23 07:10:51;;;;;;;14.45;4.03;;;;;;;13.79;81.43;101956.66;5091963;28;20048;-70
2023/05/23 07:13:58;;;;;;;12.95;4.70;;;;;;;13.80;80.52;101959.28;5107433;28;20056;-70
2023/05/23 07:16:53;;;;;;;12.18;3.80;;;;;;;13.75;80.91;101960.31;5108665;28;20128;-70
2023/05/23 07:19:39;;;;;;;18.00;4.03;;;;;;;13.80;80.40;101963.72;5098627;28;20052;-69
2023/05/23 07:22:24;;;;;;;10.63;3.50;;;;;;;13.86;78.34;101968.88;5093573;28;20052;-70
2023/05/23 07:25:09;;;;;;;13.40;3.72;;;;;;;13.93;78.53;101975.75;5108471;28;20800;-70
2023/05/23 07:27:55;;;;;;;12.35;4.13;;;;;;;14.01;76.23;101972.00;5107535;28;20051;-69
2023/05/23 07:30:41;;;;;;;13.85;3.80;;;;;;;14.00;75.52;101987.06;5108649;28;20048;-69
2023/05/23 07:33:27;;;;;;;16.85;4.68;;;;;;;13.97;74.96;101973.88;5107650;28;20052;-69
2023/05/23 07:36:18;;;;;;;14.15;3.95;;;;;;;13.95;73.92;101981.00;5085778;28;20057;-70
2023/05/23 07:39:03;;;;;;;13.38;3.83;;;;;;;13.91;74.36;101980.19;5087129;28;20500;-70
2023/05/23 07:41:49;;;;;;;14.50;3.92;;;;;;;14.01;75.10;101982.59;5072173;28;20056;-70
2023/05/23 07:44:37;;;;;;;11.65;4.25;;;;;;;14.12;74.37;101981.44;5072350;28;20524;-70
2023/05/23 07:47:23;;;;;;;15.57;3.88;;;;;;;14.24;72.46;101985.53;5071898;28;20053;-70
2023/05/23 07:50:09;;;;;;;8.48;3.60;;;;;;;14.37;71.67;101982.53;5087401;28;20683;-70
2023/05/23 07:52:55;;;;;;;9.75;3.88;;;;;;;14.55;72.20;101989.09;5072573;28;20056;-69
2023/05/23 07:55:45;;;;;;;9.32;3.78;;;;;;;14.69;69.91;101988.75;5072554;28;20056;-70
2023/05/23 07:58:32;;;;;;;14.35;3.78;;;;;;;14.81;68.56;101996.31;5072668;28;20145;-70
2023/05/23 08:01:18;;;;;;;10.18;3.50;;;;;;;14.94;67.59;101987.97;5082198;28;20583;-70
2023/05/23 08:04:35;;;;;;;14.15;4.25;;;;;;;15.16;65.79;101996.19;5103697;28;20052;-70
2023/05/23 08:07:22;;;;;;;13.70;4.03;;;;;;;15.36;64.93;101993.72;5088025;28;20048;-70
2023/05/23 08:10:11;;;;;;;22.73;4.95;;;;;;;15.90;65.32;101996.44;5088121;28;20094;-70
2023/05/23 08:12:59;;;;;;;7.88;3.70;;;;;;;16.39;62.76;102000.94;5101005;28;20190;-70
2023/05/23 08:15:49;;;;;;;15.10;4.55;;;;;;;16.58;61.99;101999.31;5089460;28;20064;-70
2023/05/23 08:18:40;;;;;;;10.60;4.00;;;;;;;16.59;62.15;101998.41;5076467;28;20055;-70
2023/05/23 08:21:26;;;;;;;9.32;3.80;;;;;;;16.67;62.11;101998.13;5081429;28;20513;-70
2023/05/23 08:24:12;;;;;;;9.95;3.83;;;;;;;16.72;61.36;102006.81;5071716;28;20092;-70
2023/05/23 08:27:00;;;;;;;12.38;3.85;;;;;;;16.76;60.89;102007.56;5106016;27;20135;-70
2023/05/23 08:29:45;;;;;;;15.18;3.42;;;;;;;16.84;59.89;102009.94;5092011;28;20060;-70
2023/05/23 08:32:32;;;;;;;9.50;3.97;;;;;;;16.96;59.54;102012.16;5090631;28;20060;-70
2023/05/23 08:35:18;;;;;;;11.10;3.70;;;;;;;17.05;58.83;102010.94;5091892;28;20064;-70
2023/05/23 08:38:06;;;;;;;16.92;4.65;;;;;;;17.20;58.51;102009.47;5089092;28;20520;-70
2023/05/23 08:40:55;;;;;;;12.60;3.80;;;;;;;17.31;57.54;102017.91;5105581;28;20052;-70
2023/05/23 08:43:43;;;;;;;9.98;3.63;;;;;;;17.29;57.17;102009.09;5096020;28;20446;-70
2023/05/23 08:46:44;;;;;;;8.93;3.40;;;;;;;17.26;56.12;102017.19;5105901;28;20056;-69
2023/05/23 08:49:38;;;;;;;8.25;3.40;;;;;;;17.21;57.10;102009.38;5091935;28;20700;-70
2023/05/23 08:52:26;;;;;;;12.75;4.07;;;;;;;17.20;56.13;102018.31;5091422;28;20515;-69
2023/05/23 08:55:15;;;;;;;8.00;3.15;;;;;;;17.14;56.52;102015.03;5106110;28;20056;-69
2023/05/23 08:58:02;;;;;;;6.82;3.17;;;;;;;17.06;56.83;102024.19;5093294;28;20056;-69
2023/05/23 09:00:59;;;;;;;9.10;3.47;;;;;;;17.05;57.53;102027.78;5092760;28;20048;-69
2023/05/23 09:03:44;;;;;;;8.70;3.22;;;;;;;17.15;56.44;102035.41;5093254;28;20122;-70
2023/05/23 09:06:46;;;;;;;9.75;3.45;;;;;;;17.13;57.46;102046.13;5089734;28;20056;-69
2023/05/23 09:09:32;;;;;;;8.93;3.30;;;;;;;17.29;57.34;102045.53;5106266;28;20105;-69
2023/05/23 09:12:23;;;;;;;10.52;2.90;;;;;;;17.47;56.47;102043.91;5092770;28;20056;-69
2023/05/23 09:15:10;;;;;;;7.97;3.25;;;;;;;17.46;56.48;102055.50;5090793;28;20056;-70
2023/05/23 09:18:03;;;;;;;8.88;2.88;;;;;;;17.46;56.72;102051.06;5089691;28;20520;-69
2023/05/23 09:20:50;;;;;;;10.23;3.03;;;;;;;17.43;56.49;102056.50;5074268;28;20060;-69
2023/05/23 09:23:38;;;;;;;10.10;2.30;;;;;;;17.38;53.89;102050.50;5075087;28;20052;-69
2023/05/23 09:26:26;;;;;;;9.40;1.92;;;;;;;17.33;54.54;102050.69;5075073;28;20139;-69
2023/05/23 09:29:13;;;;;;;9.90;2.00;;;;;;;17.60;53.83;102055.84;5086843;28;20056;-69
2023/05/23 09:32:16;;;;;;;9.70;2.20;;;;;;;18.04;53.91;102049.59;5087752;28;20048;-69
2023/05/23 09:35:05;;;;;;;14.75;3.55;;;;;;;18.27;53.71;102048.59;5106650;28;20063;-70
2023/05/23 09:37:54;;;;;;;10.27;2.85;;;;;;;18.19;52.99;102050.75;5093532;28;20048;-70
2023/05/23 09:40:44;;;;;;;11.23;2.40;;;;;;;17.89;53.78;102059.09;5109611;28;20123;-70
2023/05/23 09:43:30;;;;;;;12.82;2.58;;;;;;;17.57;53.74;102061.28;5105709;28;20604;-70
2023/05/23 09:46:16;;;;;;;9.35;1.90;;;;;;;17.33;53.86;102065.78;5085040;28;20056;-70
2023/05/23 09:49:01;;;;;;;9.25;2.30;;;;;;;17.18;55.16;102070.81;5110308;28;20056;-70
2023/05/23 09:51:57;;;;;;;16.27;2.65;;;;;;;17.29;54.67;102069.53;5109991;28;20052;-70
2023/05/23 09:54:43;;;;;;;12.13;2.25;;;;;;;17.43;55.54;102061.00;5110126;28;20565;-70
2023/05/23 09:57:30;;;;;;;6.65;2.20;;;;;;;17.94;54.07;102062.44;5110851;28;20138;-70
2023/05/23 10:00:17;;;;;;;11.15;2.40;;;;;;;18.05;52.74;102053.16;5108928;28;20056;-70
2023/05/23 10:03:14;;;;;;;10.32;2.10;;;;;;;18.04;51.45;102068.28;5108005;28;20052;-69
2023/05/23 10:06:21;;;;;;;8.60;2.58;;;;;;;17.85;52.23;102062.84;5105366;28;20087;-70
2023/05/23 10:09:16;;;;;;;13.10;2.30;;;;;;;17.89;52.20;102061.75;5104531;28;20056;-70
2023/05/23 10:12:31;;;;;;;19.48;2.30;;;;;;;18.08;51.16;102059.22;5109165;28;20044;-70
2023/05/23 10:15:18;;;;;;;18.38;2.05;;;;;;;18.18;51.40;102070.34;5097897;28;20090;-69
2023/05/23 10:18:37;;;;;;;8.68;2.03;;;;;;;18.13;48.76;102072.38;5105041;28;20075;-70
2023/05/23 10:21:31;;;;;;;11.60;2.10;;;;;;;17.92;48.94;102074.97;5088782;28;20056;-69
2023/05/23 10:24:18;;;;;;;7.75;2.00;;;;;;;17.93;50.17;102075.81;5096335;27;20151;-70
2023/05/23 10:27:05;;;;;;;7.97;1.80;;;;;;;18.10;49.31;102065.38;5108163;28;20052;-70
2023/05/23 10:29:51;;;;;;;9.27;2.10;;;;;;;18.14;49.78;102076.78;5107466;28;20501;-70
2023/05/23 10:32:39;;;;;;;12.68;2.15;;;;;;;18.08;49.79;102075.22;5095720;28;20056;-69
2023/05/23 10:35:41;;;;;;;17.23;2.83;;;;;;;18.18;48.78;102082.84;5089375;28;20527;-70
2023/05/23 10:38:39;;;;;;;11.60;2.20;;;;;;;18.34;47.19;102085.72;5088938;28;20103;-70
2023/05/23 10:41:42;;;;;;;9.82;2.35;;;;;;;18.49;46.88;102081.50;5092105;28;20060;-70
2023/05/23 10:44:30;;;;;;;11.15;1.77;;;;;;;18.63;45.39;102076.41;5102141;28;20619;-70
2023/05/23 10:47:27;;;;;;;11.18;2.10;;;;;;;18.77;44.72;102081.16;5107867;28;20048;-70
2023/05/23 10:50:31;;;;;;;10.65;2.20;;;;;;;18.86;45.58;102070.03;5109249;28;20048;-70
2023/05/23 10:53:17;;;;;;;11.70;2.20;;;;;;;18.89;44.32;102066.34;5104791;27;20056;-70
2023/05/23 10:56:08;;;;;;;24.65;3.15;;;;;;;18.82;44.45;102064.91;5109388;28;20056;-70
2023/05/23 10:58:55;;;;;;;8.27;2.20;;;;;;;18.95;43.63;102062.56;5099614;28;20056;-70
2023/05/23 11:01:41;;;;;;;10.65;2.28;;;;;;;18.87;43.70;102062.88;5105979;28;20048;-70
2023/05/23 11:04:28;;;;;;;11.25;2.58;;;;;;;18.94;44.40;102067.03;5107626;28;20048;-70
2023/05/23 11:07:31;;;;;;;8.75;1.98;;;;;;;19.11;44.52;102062.72;5107269;28;20044;-70
2023/05/23 11:10:18;;;;;;;8.63;2.65;;;;;;;19.29;41.81;102063.63;5109777;28;20051;-70
2023/05/23 11:13:06;;;;;;;6.07;2.08;;;;;;;19.26;41.67;102063.81;5102949;28;20575;-70
2023/05/23 11:15:52;;;;;;;11.80;2.20;;;;;;;19.27;40.79;102055.69;5102591;27;20538;-70
2023/05/23 11:18:37;;;;;;;8.50;1.95;;;;;;;19.15;40.93;102054.50;5103832;28;20057;-70
2023/05/23 11:21:23;;;;;;;11.25;2.33;;;;;;;19.05;43.45;102058.53;5102577;27;20060;-71
2023/05/23 11:24:09;;;;;;;10.40;2.67;;;;;;;19.27;41.95;102061.03;5108422;28;20063;-69
2023/05/23 11:27:00;;;;;;;9.65;2.22;;;;;;;19.18;43.64;102065.00;5106147;28;20048;-70
2023/05/23 11:29:57;;;;;;;13.70;2.38;;;;;;;19.17;42.69;102059.75;5105450;28;20048;-70
2023/05/23 11:32:54;;;;;;;11.25;2.40;;;;;;;19.39;42.26;102059.56;5088466;28;20468;-70
2023/05/23 11:35:48;;;;;;;8.00;2.10;;;;;;;19.24;42.28;102069.19;5087987;28;20092;-70
2023/05/23 11:38:33;;;;;;;12.15;2.40;;;;;;;19.45;42.29;102067.31;5087776;28;20052;-70
2023/05/23 11:41:19;;;;;;;11.93;2.67;;;;;;;19.68;41.88;102062.66;5102758;28;20610;-70
2023/05/23 11:44:12;;;;;;;9.80;2.10;;;;;;;19.98;40.04;102064.78;5107806;28;20060;-71
2023/05/23 11:47:06;;;;;;;14.82;2.40;;;;;;;20.36;41.17;102066.38;5108607;28;20048;-70
2023/05/23 11:49:52;;;;;;;;;;;;;;;20.84;39.32;102059.41;5108594;28;20071;-71
2023/05/23 11:52:38;;;;;;;8.02;2.10;;;;;;;20.55;39.63;102055.56;5103926;28;19924;-71
2023/05/23 11:55:23;;;;;;;23.27;2.58;;;;;;;20.33;41.28;102057.59;5105873;27;20049;-69
2023/05/23 11:58:09;;;;;;;9.77;2.30;;;;;;;20.43;41.14;102055.28;5106502;28;20059;-69
2023/05/23 12:01:08;;;;;;;5.95;1.98;;;;;;;20.78;39.38;102055.25;5100202;28;20048;-71
2023/05/23 12:03:54;;;;;;;19.60;2.90;;;;;;;20.94;38.20;102063.31;5100109;28;20052;-71
2023/05/23 12:06:40;;;;;;;9.95;2.08;;;;;;;21.08;38.88;102062.53;5106792;28;20147;-71
2023/05/23 12:09:26;;;;;;;9.23;2.28;;;;;;;21.28;37.54;102063.25;5105214;28;20056;-69
2023/05/23 12:12:12;;;;;;;8.18;2.17;;;;;;;21.13;38.51;102064.09;5105776;28;20158;-68
2023/05/23 12:14:58;;;;;;;10.60;2.03;;;;;;;21.28;38.03;102065.03;5106475;28;20052;-69
2023/05/23 12:17:45;;;;;;;10.75;2.40;;;;;;;21.13;37.48;102070.34;5107542;28;20110;-69
2023/05/23 12:20:33;;;;;;;11.63;2.17;;;;;;;20.93;38.20;102071.41;5092592;28;20052;-69
2023/05/23 12:23:25;;;;;;;9.52;2.10;;;;;;;21.12;38.71;102062.34;5106169;28;20147;-69
2023/05/23 12:26:11;;;;;;;14.00;2.22;;;;;;;21.05;38.49;102069.91;5107561;28;20055;-69
2023/05/23 12:28:58;;;;;;;7.30;1.92;;;;;;;21.07;36.77;102071.53;5096360;28;20122;-69
2023/05/23 12:31:47;;;;;;;13.07;2.33;;;;;;;20.74;37.31;102077.78;5099195;27;20048;-68
2023/05/23 12:34:32;;;;;;;49.50;4.40;;;;;;;20.59;38.46;102079.44;5105749;27;20055;-68
2023/05/23 12:37:18;;;;;;;14.55;2.70;;;;;;;20.60;39.57;102070.47;5109151;28;20082;-68
2023/05/23 12:40:13;;;;;;;12.82;2.67;;;;;;;20.54;38.62;102076.16;5103597;28;20064;-69
2023/05/23 12:42:59;;;;;;;10.52;2.10;;;;;;;20.59;38.53;102073.22;5094708;28;20051;-70
2023/05/23 12:45:44;;;;;;;13.52;2.67;;;;;;;20.45;38.84;102077.50;5102034;27;20071;-71
2023/05/23 12:48:30;;;;;;;12.27;2.50;;;;;;;20.33;39.07;102075.44;5109602;28;20048;-71
2023/05/23 12:51:16;;;;;;;9.02;1.95;;;;;;;20.29;39.17;102087.28;5107646;28;20116;-71
2023/05/23 12:54:01;;;;;;;12.63;2.40;;;;;;;20.19;38.83;102086.03;5099361;28;20059;-71
2023/05/23 12:56:47;;;;;;;12.88;2.42;;;;;;;20.30;38.27;102089.00;5108598;28;20044;-71